sensor_id;sensor_type;location;lat;lon;timestamp;pressure;altitude;pressure_sealevel;temperature;humidity
53011;BME280;42803;55.762;38.084;2023-04-19T00:01:04;100481.47;;;7.61;52.74
53011;BME280;42803;55.762;38.084;2023-04-19T00:03:33;100474.00;;;7.64;52.71
53011;BME280;42803;55.762;38.084;2023-04-19T00:06:02;100486.53;;;7.60;52.92
53011;BME280;42803;55.762;38.084;2023-04-19T00:08:33;100482.50;;;7.54;52.79
53011;BME280;42803;55.762;38.084;2023-04-19T00:11:02;100476.69;;;7.48;53.01
53011;BME280;42803;55.762;38.084;2023-04-19T00:13:31;100480.47;;;7.43;53.27
53011;BME280;42803;55.762;38.084;2023-04-19T00:16:00;100479.72;;;7.44;53.12
53011;BME280;42803;55.762;38.084;2023-04-19T00:18:29;100474.22;;;7.41;53.36
53011;BME280;42803;55.762;38.084;2023-04-19T00:20:58;100485.94;;;7.38;53.60
53011;BME280;42803;55.762;38.084;2023-04-19T00:23:27;100488.53;;;7.38;53.36
53011;BME280;42803;55.762;38.084;2023-04-19T00:25:58;100492.19;;;7.40;53.39
53011;BME280;42803;55.762;38.084;2023-04-19T00:28:27;100493.13;;;7.40;53.35
53011;BME280;42803;55.762;38.084;2023-04-19T00:30:56;100490.22;;;7.37;53.46
53011;BME280;42803;55.762;38.084;2023-04-19T00:33:25;100488.81;;;7.32;53.63
53011;BME280;42803;55.762;38.084;2023-04-19T00:35:57;100487.31;;;7.34;53.42
53011;BME280;42803;55.762;38.084;2023-04-19T00:38:26;100487.31;;;7.34;53.12
53011;BME280;42803;55.762;38.084;2023-04-19T00:40:55;100484.69;;;7.34;53.35
53011;BME280;42803;55.762;38.084;2023-04-19T00:43:27;100490.97;;;7.36;53.48
53011;BME280;42803;55.762;38.084;2023-04-19T00:45:56;100497.34;;;7.31;53.35
53011;BME280;42803;55.762;38.084;2023-04-19T00:48:25;100491.25;;;7.30;53.23
53011;BME280;42803;55.762;38.084;2023-04-19T00:50:55;100490.00;;;7.27;53.40
53011;BME280;42803;55.762;38.084;2023-04-19T00:53:24;100494.88;;;7.24;53.36
53011;BME280;42803;55.762;38.084;2023-04-19T00:55:54;100490.59;;;7.24;53.38
53011;BME280;42803;55.762;38.084;2023-04-19T00:58:26;100493.38;;;7.26;53.21
53011;BME280;42803;55.762;38.084;2023-04-19T01:00:58;100496.13;;;7.27;53.20
53011;BME280;42803;55.762;38.084;2023-04-19T01:03:27;100493.94;;;7.23;53.26
53011;BME280;42803;55.762;38.084;2023-04-19T01:05:56;100500.97;;;7.24;53.09
53011;BME280;42803;55.762;38.084;2023-04-19T01:08:26;100502.03;;;7.18;53.02
53011;BME280;42803;55.762;38.084;2023-04-19T01:10:55;100491.78;;;7.19;52.85
53011;BME280;42803;55.762;38.084;2023-04-19T01:13:24;100495.75;;;7.16;53.23
53011;BME280;42803;55.762;38.084;2023-04-19T01:15:56;100495.41;;;7.13;53.69
53011;BME280;42803;55.762;38.084;2023-04-19T01:18:25;100500.00;;;7.15;53.49
53011;BME280;42803;55.762;38.084;2023-04-19T01:20:59;100494.81;;;7.15;53.42
53011;BME280;42803;55.762;38.084;2023-04-19T01:23:29;100490.53;;;7.16;53.45
53011;BME280;42803;55.762;38.084;2023-04-19T01:25:58;100499.09;;;7.15;53.36
53011;BME280;42803;55.762;38.084;2023-04-19T01:28:29;100489.03;;;7.18;53.32
53011;BME280;42803;55.762;38.084;2023-04-19T01:30:58;100496.97;;;7.19;53.29
53011;BME280;42803;55.762;38.084;2023-04-19T01:33:27;100490.41;;;7.14;53.21
53011;BME280;42803;55.762;38.084;2023-04-19T01:35:56;100502.72;;;7.08;53.62
53011;BME280;42803;55.762;38.084;2023-04-19T01:38:25;100490.50;;;7.07;53.34
53011;BME280;42803;55.762;38.084;2023-04-19T01:40:56;100496.28;;;7.04;53.43
53011;BME280;42803;55.762;38.084;2023-04-19T01:43:25;100492.19;;;7.06;53.47
53011;BME280;42803;55.762;38.084;2023-04-19T01:45:54;100495.84;;;7.08;53.36
53011;BME280;42803;55.762;38.084;2023-04-19T01:48:23;100493.84;;;7.06;53.62
53011;BME280;42803;55.762;38.084;2023-04-19T01:50:53;100495.34;;;7.04;53.68
53011;BME280;42803;55.762;38.084;2023-04-19T01:53:22;100498.53;;;7.01;53.59
53011;BME280;42803;55.762;38.084;2023-04-19T01:55:52;100504.50;;;7.00;53.70
53011;BME280;42803;55.762;38.084;2023-04-19T01:58:22;100498.38;;;7.00;53.66
53011;BME280;42803;55.762;38.084;2023-04-19T02:00:51;100495.31;;;6.95;53.87
53011;BME280;42803;55.762;38.084;2023-04-19T02:03:20;100490.22;;;6.88;53.88
53011;BME280;42803;55.762;38.084;2023-04-19T02:05:49;100486.84;;;6.89;54.28
53011;BME280;42803;55.762;38.084;2023-04-19T02:08:21;100488.53;;;6.89;54.13
53011;BME280;42803;55.762;38.084;2023-04-19T02:10:50;100490.97;;;6.87;54.42
53011;BME280;42803;55.762;38.084;2023-04-19T02:13:19;100489.44;;;6.89;54.23
53011;BME280;42803;55.762;38.084;2023-04-19T02:15:50;100490.97;;;6.87;54.89
53011;BME280;42803;55.762;38.084;2023-04-19T02:18:20;100492.38;;;6.92;54.80
53011;BME280;42803;55.762;38.084;2023-04-19T02:20:50;100496.78;;;6.93;54.83
53011;BME280;42803;55.762;38.084;2023-04-19T02:23:20;100491.78;;;6.95;54.73
53011;BME280;42803;55.762;38.084;2023-04-19T02:25:49;100496.91;;;6.86;55.30
53011;BME280;42803;55.762;38.084;2023-04-19T02:28:18;100500.97;;;6.75;55.69
53011;BME280;42803;55.762;38.084;2023-04-19T02:30:47;100497.13;;;6.72;55.29
53011;BME280;42803;55.762;38.084;2023-04-19T02:33:18;100499.19;;;6.67;55.69
53011;BME280;42803;55.762;38.084;2023-04-19T02:35:47;100501.63;;;6.66;55.95
53011;BME280;42803;55.762;38.084;2023-04-19T02:38:16;100503.88;;;6.63;56.12
53011;BME280;42803;55.762;38.084;2023-04-19T02:40:45;100497.63;;;6.61;56.60
53011;BME280;42803;55.762;38.084;2023-04-19T02:43:14;100502.06;;;6.62;56.43
53011;BME280;42803;55.762;38.084;2023-04-19T02:45:43;100502.38;;;6.65;56.14
53011;BME280;42803;55.762;38.084;2023-04-19T02:48:13;100502.38;;;6.65;56.34
53011;BME280;42803;55.762;38.084;2023-04-19T02:50:44;100505.56;;;6.62;56.36
53011;BME280;42803;55.762;38.084;2023-04-19T02:53:13;100508.91;;;6.61;56.28
53011;BME280;42803;55.762;38.084;2023-04-19T02:55:43;100514.75;;;6.67;56.09
53011;BME280;42803;55.762;38.084;2023-04-19T02:58:16;100509.75;;;6.69;56.00
53011;BME280;42803;55.762;38.084;2023-04-19T03:00:59;100506.88;;;6.74;56.10
53011;BME280;42803;55.762;38.084;2023-04-19T03:03:28;100513.41;;;6.71;56.11
53011;BME280;42803;55.762;38.084;2023-04-19T03:05:58;100512.50;;;6.70;56.25
53011;BME280;42803;55.762;38.084;2023-04-19T03:08:28;100513.81;;;6.82;55.57
53011;BME280;42803;55.762;38.084;2023-04-19T03:10:58;100508.63;;;6.82;55.61
53011;BME280;42803;55.762;38.084;2023-04-19T03:13:29;100514.34;;;6.87;55.45
53011;BME280;42803;55.762;38.084;2023-04-19T03:15:58;100511.72;;;6.87;55.27
53011;BME280;42803;55.762;38.084;2023-04-19T03:18:30;100508.94;;;6.86;55.08
53011;BME280;42803;55.762;38.084;2023-04-19T03:21:04;100509.13;;;6.87;55.15
53011;BME280;42803;55.762;38.084;2023-04-19T03:23:50;100508.38;;;6.88;55.41
53011;BME280;42803;55.762;38.084;2023-04-19T03:26:19;100507.78;;;6.91;55.12
53011;BME280;42803;55.762;38.084;2023-04-19T03:28:52;100512.81;;;6.89;55.43
53011;BME280;42803;55.762;38.084;2023-04-19T03:31:26;100520.34;;;6.95;54.93
53011;BME280;42803;55.762;38.084;2023-04-19T03:33:55;100517.91;;;6.96;55.06
53011;BME280;42803;55.762;38.084;2023-04-19T03:36:35;100514.38;;;6.96;54.72
53011;BME280;42803;55.762;38.084;2023-04-19T03:39:04;100522.66;;;7.00;54.36
53011;BME280;42803;55.762;38.084;2023-04-19T03:41:36;100519.81;;;7.06;54.09
53011;BME280;42803;55.762;38.084;2023-04-19T03:44:30;100519.88;;;7.15;53.86
53011;BME280;42803;55.762;38.084;2023-04-19T03:47:01;100517.44;;;7.16;53.60
53011;BME280;42803;55.762;38.084;2023-04-19T03:49:35;100515.63;;;7.24;54.27
53011;BME280;42803;55.762;38.084;2023-04-19T03:52:07;100514.78;;;7.32;53.67
53011;BME280;42803;55.762;38.084;2023-04-19T03:54:36;100523.66;;;7.34;53.64
53011;BME280;42803;55.762;38.084;2023-04-19T03:57:10;100525.25;;;7.41;53.21
53011;BME280;42803;55.762;38.084;2023-04-19T03:59:41;100519.75;;;7.46;53.23
53011;BME280;42803;55.762;38.084;2023-04-19T04:02:10;100523.13;;;7.45;53.21
53011;BME280;42803;55.762;38.084;2023-04-19T04:04:39;100519.75;;;7.46;53.45
53011;BME280;42803;55.762;38.084;2023-04-19T04:07:10;100520.88;;;7.57;53.45
53011;BME280;42803;55.762;38.084;2023-04-19T04:09:39;100518.31;;;7.66;53.07
53011;BME280;42803;55.762;38.084;2023-04-19T04:12:08;100521.09;;;7.67;52.78
53011;BME280;42803;55.762;38.084;2023-04-19T04:14:39;100515.72;;;7.66;53.19
53011;BME280;42803;55.762;38.084;2023-04-19T04:17:10;100523.53;;;7.66;52.99
53011;BME280;42803;55.762;38.084;2023-04-19T04:19:40;100525.34;;;7.67;53.05
53011;BME280;42803;55.762;38.084;2023-04-19T04:22:11;100526.31;;;7.76;53.11
53011;BME280;42803;55.762;38.084;2023-04-19T04:24:42;100521.00;;;7.83;52.41
53011;BME280;42803;55.762;38.084;2023-04-19T04:27:22;100529.44;;;7.89;52.20
53011;BME280;42803;55.762;38.084;2023-04-19T04:29:53;100520.91;;;7.99;52.08
53011;BME280;42803;55.762;38.084;2023-04-19T04:32:23;100525.38;;;8.09;52.32
53011;BME280;42803;55.762;38.084;2023-04-19T04:34:58;100522.31;;;8.13;51.76
53011;BME280;42803;55.762;38.084;2023-04-19T04:37:38;100525.56;;;8.27;51.72
53011;BME280;42803;55.762;38.084;2023-04-19T04:40:08;100523.47;;;8.32;51.49
53011;BME280;42803;55.762;38.084;2023-04-19T04:42:37;100525.94;;;8.39;51.58
53011;BME280;42803;55.762;38.084;2023-04-19T04:45:07;100523.63;;;8.34;51.42
53011;BME280;42803;55.762;38.084;2023-04-19T04:47:38;100534.78;;;8.33;51.55
53011;BME280;42803;55.762;38.084;2023-04-19T04:50:10;100528.41;;;8.46;51.60
53011;BME280;42803;55.762;38.084;2023-04-19T04:52:40;100535.31;;;8.54;51.34
53011;BME280;42803;55.762;38.084;2023-04-19T04:55:21;100542.22;;;8.63;51.26
53011;BME280;42803;55.762;38.084;2023-04-19T04:57:50;100536.44;;;8.74;51.31
53011;BME280;42803;55.762;38.084;2023-04-19T05:00:38;100533.66;;;8.98;51.15
53011;BME280;42803;55.762;38.084;2023-04-19T05:03:09;100537.94;;;9.07;50.82
53011;BME280;42803;55.762;38.084;2023-04-19T05:05:45;100536.25;;;9.24;50.43
53011;BME280;42803;55.762;38.084;2023-04-19T05:08:18;100537.56;;;9.56;50.24
53011;BME280;42803;55.762;38.084;2023-04-19T05:10:47;100526.50;;;9.67;50.04
53011;BME280;42803;55.762;38.084;2023-04-19T05:13:18;100531.06;;;9.78;49.84
53011;BME280;42803;55.762;38.084;2023-04-19T05:15:47;100531.88;;;10.05;49.34
53011;BME280;42803;55.762;38.084;2023-04-19T05:18:16;100537.31;;;10.16;49.07
53011;BME280;42803;55.762;38.084;2023-04-19T05:20:45;100536.88;;;10.48;48.88
53011;BME280;42803;55.762;38.084;2023-04-19T05:23:23;100531.75;;;10.77;48.24
53011;BME280;42803;55.762;38.084;2023-04-19T05:25:52;100540.50;;;10.78;47.87
53011;BME280;42803;55.762;38.084;2023-04-19T05:28:24;100545.00;;;10.70;47.83
53011;BME280;42803;55.762;38.084;2023-04-19T05:31:03;100547.06;;;10.83;47.93
53011;BME280;42803;55.762;38.084;2023-04-19T05:33:39;100549.81;;;11.22;47.50
53011;BME280;42803;55.762;38.084;2023-04-19T05:36:09;100557.91;;;11.44;46.90
53011;BME280;42803;55.762;38.084;2023-04-19T05:38:39;100543.88;;;11.91;46.44
53011;BME280;42803;55.762;38.084;2023-04-19T05:41:09;100539.22;;;12.28;45.96
53011;BME280;42803;55.762;38.084;2023-04-19T05:43:38;100540.72;;;12.76;45.37
53011;BME280;42803;55.762;38.084;2023-04-19T05:46:10;100546.59;;;12.73;44.63
53011;BME280;42803;55.762;38.084;2023-04-19T05:48:39;100546.59;;;12.42;44.74
53011;BME280;42803;55.762;38.084;2023-04-19T05:51:28;100549.72;;;12.18;45.21
53011;BME280;42803;55.762;38.084;2023-04-19T05:54:10;100554.34;;;12.02;44.91
53011;BME280;42803;55.762;38.084;2023-04-19T05:56:44;100561.09;;;11.79;45.17
53011;BME280;42803;55.762;38.084;2023-04-19T05:59:14;100556.59;;;11.68;45.93
53011;BME280;42803;55.762;38.084;2023-04-19T06:01:43;100553.22;;;11.79;45.52
53011;BME280;42803;55.762;38.084;2023-04-19T06:04:12;100562.72;;;11.87;45.17
53011;BME280;42803;55.762;38.084;2023-04-19T06:06:42;100560.13;;;11.79;45.84
53011;BME280;42803;55.762;38.084;2023-04-19T06:09:16;100559.38;;;11.80;45.27
53011;BME280;42803;55.762;38.084;2023-04-19T06:11:46;100564.88;;;12.12;44.05
53011;BME280;42803;55.762;38.084;2023-04-19T06:14:18;100556.56;;;12.36;44.12
53011;BME280;42803;55.762;38.084;2023-04-19T06:16:47;100557.59;;;12.59;43.96
53011;BME280;42803;55.762;38.084;2023-04-19T06:19:16;100557.19;;;12.54;43.47
53011;BME280;42803;55.762;38.084;2023-04-19T06:21:46;100556.56;;;12.57;43.50
53011;BME280;42803;55.762;38.084;2023-04-19T06:24:17;100560.72;;;12.55;43.26
53011;BME280;42803;55.762;38.084;2023-04-19T06:26:46;100558.22;;;12.36;43.34
53011;BME280;42803;55.762;38.084;2023-04-19T06:29:16;100554.41;;;12.32;43.87
53011;BME280;42803;55.762;38.084;2023-04-19T06:31:47;100556.00;;;12.30;43.45
53011;BME280;42803;55.762;38.084;2023-04-19T06:34:16;100559.97;;;12.56;44.03
53011;BME280;42803;55.762;38.084;2023-04-19T06:36:46;100562.56;;;12.66;43.07
53011;BME280;42803;55.762;38.084;2023-04-19T06:39:17;100554.88;;;12.67;42.99
53011;BME280;42803;55.762;38.084;2023-04-19T06:41:46;100560.72;;;13.06;42.84
53011;BME280;42803;55.762;38.084;2023-04-19T06:44:17;100553.22;;;13.41;42.30
53011;BME280;42803;55.762;38.084;2023-04-19T06:46:46;100551.84;;;13.56;41.92
53011;BME280;42803;55.762;38.084;2023-04-19T06:49:15;100552.84;;;13.69;41.73
53011;BME280;42803;55.762;38.084;2023-04-19T06:51:44;100556.38;;;13.69;41.55
53011;BME280;42803;55.762;38.084;2023-04-19T06:54:13;100558.28;;;13.50;41.49
53011;BME280;42803;55.762;38.084;2023-04-19T06:56:44;100561.19;;;13.43;41.89
53011;BME280;42803;55.762;38.084;2023-04-19T06:59:15;100558.00;;;13.57;41.80
53011;BME280;42803;55.762;38.084;2023-04-19T07:01:48;100549.59;;;13.61;41.83
53011;BME280;42803;55.762;38.084;2023-04-19T07:04:17;100550.38;;;13.70;41.57
53011;BME280;42803;55.762;38.084;2023-04-19T07:06:47;100545.66;;;13.88;41.61
53011;BME280;42803;55.762;38.084;2023-04-19T07:09:17;100539.81;;;14.02;41.19
53011;BME280;42803;55.762;38.084;2023-04-19T07:11:47;100542.09;;;13.98;40.90
53011;BME280;42803;55.762;38.084;2023-04-19T07:14:21;100538.31;;;14.16;40.83
53011;BME280;42803;55.762;38.084;2023-04-19T07:16:50;100535.22;;;14.44;40.73
53011;BME280;42803;55.762;38.084;2023-04-19T07:19:20;100540.97;;;14.50;40.20
53011;BME280;42803;55.762;38.084;2023-04-19T07:21:50;100539.41;;;14.42;40.32
53011;BME280;42803;55.762;38.084;2023-04-19T07:24:19;100542.00;;;14.30;40.30
53011;BME280;42803;55.762;38.084;2023-04-19T07:26:50;100539.25;;;14.28;40.34
53011;BME280;42803;55.762;38.084;2023-04-19T07:29:19;100538.59;;;14.31;40.35
53011;BME280;42803;55.762;38.084;2023-04-19T07:31:49;100527.66;;;14.36;40.16
53011;BME280;42803;55.762;38.084;2023-04-19T07:34:18;100530.28;;;14.14;39.95
53011;BME280;42803;55.762;38.084;2023-04-19T07:36:47;100542.56;;;14.04;40.09
53011;BME280;42803;55.762;38.084;2023-04-19T07:39:16;100543.03;;;13.88;39.73
53011;BME280;42803;55.762;38.084;2023-04-19T07:41:45;100528.56;;;14.15;39.93
53011;BME280;42803;55.762;38.084;2023-04-19T07:44:16;100529.88;;;14.20;39.38
53011;BME280;42803;55.762;38.084;2023-04-19T07:46:45;100529.88;;;14.20;39.38
53011;BME280;42803;55.762;38.084;2023-04-19T07:49:14;100531.50;;;14.30;39.65
53011;BME280;42803;55.762;38.084;2023-04-19T07:51:44;100529.56;;;14.61;39.52
53011;BME280;42803;55.762;38.084;2023-04-19T07:54:13;100534.66;;;14.48;38.90
53011;BME280;42803;55.762;38.084;2023-04-19T07:56:43;100539.97;;;14.37;39.23
53011;BME280;42803;55.762;38.084;2023-04-19T07:59:12;100530.28;;;14.58;39.34
53011;BME280;42803;55.762;38.084;2023-04-19T08:01:42;100547.13;;;14.84;38.83
53011;BME280;42803;55.762;38.084;2023-04-19T08:04:12;100536.91;;;14.65;38.65
53011;BME280;42803;55.762;38.084;2023-04-19T08:06:41;100533.00;;;14.60;39.13
53011;BME280;42803;55.762;38.084;2023-04-19T08:09:10;100544.28;;;14.81;38.69
53011;BME280;42803;55.762;38.084;2023-04-19T08:11:39;100530.13;;;14.91;38.74
53011;BME280;42803;55.762;38.084;2023-04-19T08:14:09;100537.34;;;15.28;38.30
53011;BME280;42803;55.762;38.084;2023-04-19T08:17:01;100524.44;;;15.43;38.09
53011;BME280;42803;55.762;38.084;2023-04-19T08:19:34;100530.13;;;15.38;37.64
53011;BME280;42803;55.762;38.084;2023-04-19T08:22:03;100528.44;;;15.26;38.31
53011;BME280;42803;55.762;38.084;2023-04-19T08:24:33;100525.47;;;15.57;38.08
53011;BME280;42803;55.762;38.084;2023-04-19T08:27:02;100526.69;;;15.62;37.66
53011;BME280;42803;55.762;38.084;2023-04-19T08:29:32;100523.25;;;15.63;37.89
53011;BME280;42803;55.762;38.084;2023-04-19T08:32:03;100523.94;;;15.96;37.53
53011;BME280;42803;55.762;38.084;2023-04-19T08:34:34;100518.50;;;16.06;37.87
53011;BME280;42803;55.762;38.084;2023-04-19T08:37:04;100526.22;;;15.79;37.34
53011;BME280;42803;55.762;38.084;2023-04-19T08:39:33;100519.72;;;15.74;37.80
53011;BME280;42803;55.762;38.084;2023-04-19T08:42:05;100520.53;;;15.62;37.61
53011;BME280;42803;55.762;38.084;2023-04-19T08:44:51;100524.19;;;15.75;37.87
53011;BME280;42803;55.762;38.084;2023-04-19T08:47:42;100522.13;;;15.71;37.41
53011;BME280;42803;55.762;38.084;2023-04-19T08:50:28;100524.31;;;15.77;37.59
53011;BME280;42803;55.762;38.084;2023-04-19T08:53:08;100517.97;;;15.87;37.54
53011;BME280;42803;55.762;38.084;2023-04-19T08:55:41;100524.00;;;15.72;37.44
53011;BME280;42803;55.762;38.084;2023-04-19T08:58:26;100524.75;;;15.48;37.89
53011;BME280;42803;55.762;38.084;2023-04-19T09:01:16;100517.69;;;15.70;37.83
53011;BME280;42803;55.762;38.084;2023-04-19T09:04:03;100510.78;;;15.84;37.67
53011;BME280;42803;55.762;38.084;2023-04-19T09:06:54;100506.91;;;16.41;37.13
53011;BME280;42803;55.762;38.084;2023-04-19T09:09:25;100516.88;;;16.45;36.42
53011;BME280;42803;55.762;38.084;2023-04-19T09:12:15;100499.22;;;16.44;36.71
53011;BME280;42803;55.762;38.084;2023-04-19T09:14:45;100491.16;;;16.54;36.28
53011;BME280;42803;55.762;38.084;2023-04-19T09:17:17;100493.78;;;16.29;36.30
53011;BME280;42803;55.762;38.084;2023-04-19T09:19:48;100485.78;;;16.52;36.75
53011;BME280;42803;55.762;38.084;2023-04-19T09:22:18;100488.81;;;16.58;36.38
53011;BME280;42803;55.762;38.084;2023-04-19T09:24:47;100489.00;;;16.73;36.16
53011;BME280;42803;55.762;38.084;2023-04-19T09:27:26;100481.78;;;16.46;36.17
53011;BME280;42803;55.762;38.084;2023-04-19T09:29:57;100484.84;;;16.52;36.51
53011;BME280;42803;55.762;38.084;2023-04-19T09:32:27;100483.00;;;16.38;36.19
53011;BME280;42803;55.762;38.084;2023-04-19T09:34:59;100492.88;;;16.28;36.04
53011;BME280;42803;55.762;38.084;2023-04-19T09:37:29;100488.84;;;16.33;36.20
53011;BME280;42803;55.762;38.084;2023-04-19T09:40:22;100478.91;;;16.29;36.04
53011;BME280;42803;55.762;38.084;2023-04-19T09:42:52;100476.31;;;16.43;36.07
53011;BME280;42803;55.762;38.084;2023-04-19T09:45:44;100478.59;;;16.63;35.72
53011;BME280;42803;55.762;38.084;2023-04-19T09:48:15;100474.22;;;16.75;35.33
53011;BME280;42803;55.762;38.084;2023-04-19T09:50:53;100471.31;;;16.72;34.72
53011;BME280;42803;55.762;38.084;2023-04-19T09:53:30;100469.84;;;16.51;34.91
53011;BME280;42803;55.762;38.084;2023-04-19T09:56:02;100464.28;;;16.60;35.23
53011;BME280;42803;55.762;38.084;2023-04-19T09:58:33;100461.78;;;16.61;34.94
53011;BME280;42803;55.762;38.084;2023-04-19T10:01:19;100470.28;;;16.57;34.80
53011;BME280;42803;55.762;38.084;2023-04-19T10:03:54;100473.75;;;16.44;34.81
53011;BME280;42803;55.762;38.084;2023-04-19T10:06:37;100463.72;;;16.39;34.39
53011;BME280;42803;55.762;38.084;2023-04-19T10:09:12;100460.06;;;16.37;35.00
53011;BME280;42803;55.762;38.084;2023-04-19T10:11:44;100460.34;;;16.53;34.55
53011;BME280;42803;55.762;38.084;2023-04-19T10:14:22;100462.69;;;16.62;34.85
53011;BME280;42803;55.762;38.084;2023-04-19T10:16:53;100464.06;;;16.81;35.07
53011;BME280;42803;55.762;38.084;2023-04-19T10:19:26;100456.16;;;16.81;34.33
53011;BME280;42803;55.762;38.084;2023-04-19T10:21:57;100461.94;;;16.89;34.14
53011;BME280;42803;55.762;38.084;2023-04-19T10:24:27;100454.75;;;16.87;34.53
53011;BME280;42803;55.762;38.084;2023-04-19T10:27:08;100478.44;;;16.73;33.93
53011;BME280;42803;55.762;38.084;2023-04-19T10:29:56;100462.97;;;16.53;34.15
53011;BME280;42803;55.762;38.084;2023-04-19T10:32:26;100444.44;;;16.65;34.11
53011;BME280;42803;55.762;38.084;2023-04-19T10:35:00;100451.00;;;16.58;34.12
53011;BME280;42803;55.762;38.084;2023-04-19T10:37:32;100459.91;;;16.47;34.19
53011;BME280;42803;55.762;38.084;2023-04-19T10:40:01;100456.25;;;16.45;34.10
53011;BME280;42803;55.762;38.084;2023-04-19T10:45:38;100446.56;;;16.57;34.23
53011;BME280;42803;55.762;38.084;2023-04-19T10:48:30;100444.06;;;16.72;34.01
53011;BME280;42803;55.762;38.084;2023-04-19T10:51:01;100450.47;;;16.50;34.04
53011;BME280;42803;55.762;38.084;2023-04-19T10:53:50;100446.56;;;16.32;33.86
53011;BME280;42803;55.762;38.084;2023-04-19T10:56:21;100442.34;;;16.47;34.29
53011;BME280;42803;55.762;38.084;2023-04-19T10:59:16;100436.69;;;16.79;33.70
53011;BME280;42803;55.762;38.084;2023-04-19T11:01:53;100435.06;;;16.81;33.80
53011;BME280;42803;55.762;38.084;2023-04-19T11:04:56;100424.41;;;16.93;33.49
53011;BME280;42803;55.762;38.084;2023-04-19T11:07:26;100430.50;;;16.79;33.57
53011;BME280;42803;55.762;38.084;2023-04-19T11:09:56;100426.94;;;16.78;33.76
53011;BME280;42803;55.762;38.084;2023-04-19T11:12:25;100422.00;;;17.10;33.59
53011;BME280;42803;55.762;38.084;2023-04-19T11:14:57;100421.91;;;16.95;33.39
53011;BME280;42803;55.762;38.084;2023-04-19T11:17:44;100422.91;;;16.84;33.36
53011;BME280;42803;55.762;38.084;2023-04-19T11:20:31;100421.88;;;17.21;33.14
53011;BME280;42803;55.762;38.084;2023-04-19T11:23:00;100422.91;;;17.10;33.09
53011;BME280;42803;55.762;38.084;2023-04-19T11:25:31;100428.66;;;17.04;33.06
53011;BME280;42803;55.762;38.084;2023-04-19T11:28:03;100413.38;;;16.99;33.25
53011;BME280;42803;55.762;38.084;2023-04-19T11:30:33;100414.09;;;17.10;33.07
53011;BME280;42803;55.762;38.084;2023-04-19T11:33:02;100416.59;;;17.21;33.09
53011;BME280;42803;55.762;38.084;2023-04-19T11:35:32;100418.44;;;17.22;33.53
53011;BME280;42803;55.762;38.084;2023-04-19T11:38:01;100414.16;;;17.11;33.19
53011;BME280;42803;55.762;38.084;2023-04-19T11:40:33;100419.25;;;16.95;33.07
53011;BME280;42803;55.762;38.084;2023-04-19T11:43:04;100411.13;;;16.78;33.03
53011;BME280;42803;55.762;38.084;2023-04-19T11:45:34;100415.59;;;16.79;32.94
53011;BME280;42803;55.762;38.084;2023-04-19T11:48:12;100413.09;;;16.69;33.08
53011;BME280;42803;55.762;38.084;2023-04-19T11:50:44;100402.13;;;16.63;33.16
53011;BME280;42803;55.762;38.084;2023-04-19T11:53:18;100397.47;;;16.59;33.42
53011;BME280;42803;55.762;38.084;2023-04-19T11:55:51;100409.00;;;16.48;33.59
53011;BME280;42803;55.762;38.084;2023-04-19T11:58:25;100402.56;;;16.56;33.15
53011;BME280;42803;55.762;38.084;2023-04-19T12:00:56;100403.09;;;16.64;33.31
53011;BME280;42803;55.762;38.084;2023-04-19T12:03:27;100410.47;;;16.69;33.21
53011;BME280;42803;55.762;38.084;2023-04-19T12:05:58;100400.47;;;16.77;33.20
53011;BME280;42803;55.762;38.084;2023-04-19T12:08:31;100397.28;;;16.69;33.01
53011;BME280;42803;55.762;38.084;2023-04-19T12:11:03;100409.66;;;16.70;32.78
53011;BME280;42803;55.762;38.084;2023-04-19T12:13:33;100403.94;;;16.76;32.87
53011;BME280;42803;55.762;38.084;2023-04-19T12:16:03;100408.13;;;16.61;32.76
53011;BME280;42803;55.762;38.084;2023-04-19T12:18:42;100412.47;;;16.47;32.72
53011;BME280;42803;55.762;38.084;2023-04-19T12:21:23;100403.69;;;16.73;32.68
53011;BME280;42803;55.762;38.084;2023-04-19T12:23:55;100394.91;;;16.86;32.31
53011;BME280;42803;55.762;38.084;2023-04-19T12:26:26;100404.09;;;17.05;32.39
53011;BME280;42803;55.762;38.084;2023-04-19T12:28:57;100393.06;;;16.98;32.14
53011;BME280;42803;55.762;38.084;2023-04-19T12:31:26;100392.66;;;16.92;32.22
53011;BME280;42803;55.762;38.084;2023-04-19T12:33:56;100381.94;;;17.02;32.25
53011;BME280;42803;55.762;38.084;2023-04-19T12:36:25;100385.16;;;16.98;31.95
53011;BME280;42803;55.762;38.084;2023-04-19T12:38:54;100382.84;;;16.76;32.28
53011;BME280;42803;55.762;38.084;2023-04-19T12:41:23;100377.16;;;16.96;32.09
53011;BME280;42803;55.762;38.084;2023-04-19T12:43:54;100388.31;;;16.92;32.21
53011;BME280;42803;55.762;38.084;2023-04-19T12:46:28;100385.56;;;16.77;32.07
53011;BME280;42803;55.762;38.084;2023-04-19T12:49:17;100385.81;;;16.55;32.24
53011;BME280;42803;55.762;38.084;2023-04-19T12:51:47;100372.94;;;16.47;32.41
53011;BME280;42803;55.762;38.084;2023-04-19T12:54:16;100369.31;;;16.45;32.46
53011;BME280;42803;55.762;38.084;2023-04-19T12:56:45;100379.03;;;16.59;32.41
53011;BME280;42803;55.762;38.084;2023-04-19T12:59:16;100374.56;;;16.58;32.09
53011;BME280;42803;55.762;38.084;2023-04-19T13:01:45;100368.56;;;16.47;31.92
53011;BME280;42803;55.762;38.084;2023-04-19T13:04:14;100363.63;;;16.65;32.06
53011;BME280;42803;55.762;38.084;2023-04-19T13:06:44;100369.34;;;16.85;31.81
53011;BME280;42803;55.762;38.084;2023-04-19T13:09:13;100368.25;;;16.94;31.82
53011;BME280;42803;55.762;38.084;2023-04-19T13:11:45;100370.16;;;16.84;31.94